Terminal Aerodrome Forecast
Issued by NWS Shreveport, LA

Home | Current Version | Previous Version | Text Only | Print | Product List | Glossary On
Versions: 1 2 3 4 5 6 7 8 9 10 11 12 13 14 15 16 17 18
614
FTUS44 KSHV 232328
TAFELD
TAF
KELD 232328Z 2400/2424 17006KT P6SM SKC
      TEMPO 2400/2403 19012KT
     FM241200 15012G20KT P6SM BKN030
      TEMPO 2413/2416 15010KT OVC020
     FM241800 17014G22KT P6SM BKN040 OVC120=

USA.gov is the U.S. government's official web portal to all federal, state and local government web resources and services.